createdAt,value
2017-10-22T00:00:29.435Z,1.90
2017-10-22T00:05:32.172Z,1.70
2017-10-22T00:08:00.475Z,1.40
2017-10-22T00:10:28.756Z,2.40
2017-10-22T00:12:57.043Z,1.80
2017-10-22T00:15:25.326Z,1.80
2017-10-22T00:17:53.590Z,1.77
2017-10-22T00:20:21.926Z,2.10
2017-10-22T00:22:50.201Z,2.03
2017-10-22T00:25:18.501Z,2.10
2017-10-22T00:27:46.802Z,2.17
2017-10-22T00:30:15.075Z,2.60
2017-10-22T00:32:43.401Z,1.90
2017-10-22T00:35:12.462Z,1.60
2017-10-22T00:37:40.755Z,2.30
2017-10-22T00:40:09.040Z,2.60
2017-10-22T00:42:37.321Z,1.80
2017-10-22T00:45:05.624Z,1.90
2017-10-22T00:47:33.905Z,2.13
2017-10-22T00:50:02.223Z,1.90
2017-10-22T00:52:30.492Z,2.13
2017-10-22T00:54:59.605Z,1.53
2017-10-22T00:57:27.890Z,2.17
2017-10-22T00:59:56.170Z,2.03
2017-10-22T01:02:24.449Z,2.90
2017-10-22T01:04:52.751Z,1.40
2017-10-22T01:07:21.027Z,2.90
2017-10-22T01:09:49.326Z,2.07
2017-10-22T01:12:17.619Z,2.60
2017-10-22T01:14:45.918Z,1.47
2017-10-22T01:17:14.214Z,2.33
2017-10-22T01:19:42.513Z,1.77
2017-10-22T01:22:10.786Z,1.80
2017-10-22T01:24:39.065Z,2.10
2017-10-22T01:27:07.342Z,1.67
2017-10-22T01:29:35.618Z,1.80
2017-10-22T01:32:03.904Z,1.90
2017-10-22T01:34:32.298Z,2.83
2017-10-22T01:37:00.576Z,2.20
2017-10-22T01:39:28.858Z,1.70
2017-10-22T01:41:57.437Z,1.50
2017-10-22T01:44:25.749Z,1.67
2017-10-22T01:46:54.067Z,2.00
2017-10-22T01:49:22.359Z,2.60
2017-10-22T01:51:50.662Z,1.67
2017-10-22T01:54:18.938Z,2.70
2017-10-22T01:56:47.241Z,2.57
2017-10-22T01:59:15.553Z,1.87
2017-10-22T02:01:43.855Z,1.90
2017-10-22T02:04:12.900Z,1.63
2017-10-22T02:06:41.175Z,1.87
2017-10-22T02:09:09.491Z,1.87
2017-10-22T02:11:37.790Z,2.23
2017-10-22T02:14:06.099Z,1.93
2017-10-22T02:16:34.402Z,2.67
2017-10-22T02:19:03.451Z,1.97
2017-10-22T02:21:31.754Z,2.20
2017-10-22T02:24:00.027Z,1.83
2017-10-22T02:26:28.311Z,2.10
2017-10-22T02:28:56.614Z,2.03
2017-10-22T02:31:25.746Z,2.30
2017-10-22T02:33:54.030Z,1.67
2017-10-22T02:36:22.362Z,2.00
2017-10-22T02:38:51.394Z,1.43
2017-10-22T02:41:19.694Z,1.47
2017-10-22T02:43:48.042Z,1.90
2017-10-22T02:46:17.114Z,1.63
2017-10-22T02:48:45.386Z,2.23
2017-10-22T02:51:13.662Z,1.97
2017-10-22T02:53:42.045Z,2.23
2017-10-22T02:56:10.362Z,2.07
2017-10-22T02:58:38.644Z,2.20
2017-10-22T03:01:06.938Z,1.73
2017-10-22T03:03:35.214Z,2.27
2017-10-22T03:06:03.492Z,2.50
2017-10-22T03:08:32.589Z,1.60
2017-10-22T03:11:00.867Z,2.23
2017-10-22T03:13:29.959Z,1.73
2017-10-22T03:15:58.224Z,2.13
2017-10-22T03:18:27.285Z,2.10
2017-10-22T03:20:55.557Z,1.50
2017-10-22T03:23:24.598Z,1.70
2017-10-22T03:25:52.897Z,2.00
2017-10-22T03:28:21.214Z,1.77
2017-10-22T03:30:49.555Z,1.70
2017-10-22T03:33:18.750Z,1.87
2017-10-22T03:35:47.060Z,1.97
2017-10-22T03:38:15.351Z,3.03
2017-10-22T03:40:43.622Z,1.90
2017-10-22T03:43:11.899Z,1.93
2017-10-22T03:45:40.937Z,2.20
2017-10-22T03:48:09.250Z,1.40
2017-10-22T03:50:37.522Z,2.23
2017-10-22T03:53:05.826Z,1.93
2017-10-22T03:55:34.098Z,3.20
2017-10-22T03:58:02.402Z,1.73
2017-10-22T04:00:30.688Z,1.73
2017-10-22T04:02:58.987Z,1.40
2017-10-22T04:05:27.345Z,1.70
2017-10-22T04:07:55.638Z,1.63
2017-10-22T04:10:23.974Z,1.50
2017-10-22T04:12:52.251Z,1.47
2017-10-22T04:15:20.539Z,1.90
2017-10-22T04:17:48.828Z,1.27
2017-10-22T04:20:17.139Z,2.23
2017-10-22T04:22:46.221Z,1.20
2017-10-22T04:25:14.491Z,1.40
2017-10-22T04:27:46.431Z,2.13
2017-10-22T04:33:15.810Z,1.27
2017-10-22T04:35:46.203Z,1.73
2017-10-22T04:38:15.642Z,1.97
2017-10-22T04:40:44.700Z,1.70
2017-10-22T04:43:13.810Z,1.53
2017-10-22T04:45:42.089Z,1.83
2017-10-22T04:48:11.135Z,1.40
2017-10-22T04:50:39.427Z,1.90
2017-10-22T04:53:07.714Z,1.77
2017-10-22T04:55:36.024Z,1.83
2017-10-22T04:58:04.302Z,1.77
2017-10-22T05:00:32.620Z,2.00
2017-10-22T05:03:01.786Z,1.97
2017-10-22T05:05:31.019Z,1.73
2017-10-22T05:07:59.298Z,2.43
2017-10-22T05:10:29.087Z,2.90
2017-10-22T05:12:57.406Z,2.00
2017-10-22T05:15:25.682Z,1.87
2017-10-22T05:17:53.959Z,1.67
2017-10-22T05:20:22.255Z,2.73
2017-10-22T05:22:50.541Z,1.87
2017-10-22T05:25:18.833Z,2.70
2017-10-22T05:27:47.134Z,1.77
2017-10-22T05:30:15.443Z,1.97
2017-10-22T05:32:43.786Z,1.97
2017-10-22T05:35:13.711Z,1.80
2017-10-22T05:37:42.759Z,2.73
2017-10-22T05:40:11.040Z,1.97
2017-10-22T05:42:40.833Z,2.27
2017-10-22T05:45:09.122Z,1.60
2017-10-22T05:47:37.431Z,2.10
2017-10-22T05:50:06.487Z,1.77
2017-10-22T05:52:34.780Z,1.67
2017-10-22T05:55:03.103Z,1.43
2017-10-22T05:57:31.384Z,2.10
2017-10-22T05:59:59.670Z,2.30
2017-10-22T06:02:27.950Z,2.40
2017-10-22T06:04:57.012Z,1.90
2017-10-22T06:07:25.327Z,1.83
2017-10-22T06:09:53.641Z,2.33
2017-10-22T06:12:21.919Z,1.50
2017-10-22T06:14:50.186Z,2.37
2017-10-22T06:17:19.227Z,1.40
2017-10-22T06:19:47.675Z,1.63
2017-10-22T06:22:15.960Z,3.07
2017-10-22T06:24:44.241Z,1.53
2017-10-22T06:27:12.524Z,1.27
2017-10-22T06:29:40.812Z,1.40
2017-10-22T06:32:09.130Z,1.33
2017-10-22T06:34:38.182Z,1.00
2017-10-22T06:37:06.477Z,1.70
2017-10-22T06:39:34.752Z,1.83
2017-10-22T06:44:37.539Z,1.30
2017-10-22T06:47:06.608Z,1.20
2017-10-22T06:49:34.896Z,1.50
2017-10-22T06:52:03.177Z,1.57
2017-10-22T06:54:31.490Z,1.47
2017-10-22T06:57:00.554Z,1.40
2017-10-22T06:59:28.910Z,1.53
2017-10-22T07:01:58.020Z,2.37
2017-10-22T07:04:26.404Z,1.93
2017-10-22T07:06:54.727Z,1.20
2017-10-22T07:09:23.047Z,1.47
2017-10-22T07:11:51.423Z,1.37
2017-10-22T07:14:19.758Z,1.20
2017-10-22T07:16:48.905Z,1.10
2017-10-22T07:19:17.268Z,1.57
2017-10-22T07:21:46.402Z,0.90
2017-10-22T07:24:14.771Z,0.90
2017-10-22T07:26:43.931Z,1.67
2017-10-22T07:29:12.268Z,1.23
2017-10-22T07:31:40.662Z,0.87
2017-10-22T07:34:08.963Z,1.17
2017-10-22T07:36:37.324Z,1.10
2017-10-22T07:39:05.610Z,0.97
2017-10-22T07:41:33.927Z,1.03
2017-10-22T07:44:02.248Z,0.70
2017-10-22T07:46:30.529Z,0.70
2017-10-22T07:48:58.802Z,0.93
2017-10-22T07:51:27.130Z,1.23
2017-10-22T07:53:55.422Z,0.80
2017-10-22T07:56:23.699Z,0.90
2017-10-22T07:58:51.985Z,0.87
2017-10-22T08:01:20.275Z,0.70
2017-10-22T08:03:48.623Z,1.00
2017-10-22T08:06:16.909Z,0.70
2017-10-22T08:08:45.959Z,0.90
2017-10-22T08:11:14.242Z,0.93
2017-10-22T08:13:43.292Z,0.70
2017-10-22T08:16:11.599Z,0.70
2017-10-22T08:18:39.917Z,0.70
2017-10-22T08:21:08.197Z,0.70
2017-10-22T08:23:36.474Z,1.03
2017-10-22T08:26:05.531Z,0.70
2017-10-22T08:28:33.870Z,0.70
2017-10-22T08:31:04.072Z,0.80
2017-10-22T08:33:32.362Z,0.70
2017-10-22T08:36:00.739Z,0.90
2017-10-22T08:38:29.083Z,0.70
2017-10-22T08:40:57.519Z,0.93
2017-10-22T08:43:25.879Z,0.67
2017-10-22T08:45:54.200Z,0.70
2017-10-22T08:48:22.484Z,0.80
2017-10-22T08:50:50.760Z,0.80
2017-10-22T08:53:19.071Z,0.60
2017-10-22T08:55:47.359Z,0.70
2017-10-22T08:58:15.635Z,0.73
2017-10-22T09:00:43.913Z,0.90
2017-10-22T09:03:12.236Z,0.63
2017-10-22T09:05:40.659Z,0.83
2017-10-22T09:08:09.708Z,1.67
2017-10-22T09:10:38.004Z,0.80
2017-10-22T09:13:06.287Z,0.70
2017-10-22T09:15:34.659Z,0.70
2017-10-22T09:18:03.030Z,0.60
2017-10-22T09:20:31.430Z,0.80
2017-10-22T09:22:59.756Z,0.60
2017-10-22T09:25:28.106Z,0.67
2017-10-22T09:27:56.451Z,0.60
2017-10-22T09:30:24.836Z,0.90
2017-10-22T09:32:53.212Z,0.60
2017-10-22T09:35:21.566Z,0.60
2017-10-22T09:37:49.933Z,0.70
2017-10-22T09:40:18.986Z,0.60
2017-10-22T09:42:47.304Z,0.57
2017-10-22T09:45:15.640Z,0.70
2017-10-22T09:47:44.697Z,0.90
2017-10-22T09:50:12.980Z,0.93
2017-10-22T09:52:41.269Z,0.73
2017-10-22T09:55:09.556Z,0.60
2017-10-22T09:57:37.969Z,0.50
2017-10-22T10:00:11.712Z,0.53
2017-10-22T10:02:40.799Z,0.50
2017-10-22T10:05:09.872Z,0.70
2017-10-22T10:07:38.149Z,0.60
2017-10-22T10:10:06.429Z,0.60
2017-10-22T10:12:34.710Z,0.77
2017-10-22T10:15:03.299Z,0.67
2017-10-22T10:17:32.563Z,0.60
2017-10-22T10:20:00.907Z,0.60
2017-10-22T10:22:29.949Z,0.50
2017-10-22T10:24:58.343Z,0.77
2017-10-22T10:27:26.628Z,0.70
2017-10-22T10:29:54.908Z,0.53
2017-10-22T10:32:23.235Z,0.90
2017-10-22T10:34:51.518Z,0.60
2017-10-22T10:37:19.826Z,0.50
2017-10-22T10:39:48.870Z,0.80
2017-10-22T10:42:17.148Z,0.60
2017-10-22T10:44:45.431Z,0.83
2017-10-22T10:47:15.226Z,0.50
2017-10-22T10:49:43.786Z,0.53
2017-10-22T10:52:12.080Z,0.80
2017-10-22T10:54:40.393Z,0.60
2017-10-22T10:57:09.543Z,0.50
2017-10-22T10:59:38.728Z,0.53
2017-10-22T11:02:07.131Z,0.50
2017-10-22T11:04:36.182Z,0.70
2017-10-22T11:07:04.463Z,0.63
2017-10-22T11:09:32.738Z,0.60
2017-10-22T11:12:01.064Z,0.73
2017-10-22T11:14:29.425Z,0.70
2017-10-22T11:16:57.758Z,0.60
2017-10-22T11:19:26.094Z,0.60
2017-10-22T11:21:54.407Z,0.70
2017-10-22T11:24:22.796Z,0.60
2017-10-22T11:26:51.227Z,0.67
2017-10-22T11:29:20.369Z,0.60
2017-10-22T11:31:48.708Z,0.50
2017-10-22T11:34:17.125Z,0.60
2017-10-22T11:36:46.255Z,0.60
2017-10-22T11:39:14.612Z,0.60
2017-10-22T11:41:43.753Z,0.60
2017-10-22T11:44:12.132Z,0.73
2017-10-22T11:46:40.513Z,0.50
2017-10-22T11:49:09.669Z,0.60
2017-10-22T11:51:38.046Z,0.60
2017-10-22T11:54:06.393Z,0.50
2017-10-22T11:56:34.714Z,0.70
2017-10-22T11:59:03.805Z,0.60
2017-10-22T12:01:32.952Z,0.60
2017-10-22T12:04:01.324Z,0.60
2017-10-22T12:06:30.469Z,0.70
2017-10-22T12:08:58.825Z,0.70
2017-10-22T12:11:27.148Z,0.70
2017-10-22T12:13:55.483Z,0.50
2017-10-22T12:16:24.630Z,0.60
2017-10-22T12:18:52.967Z,0.70
2017-10-22T12:21:21.331Z,0.70
2017-10-22T12:23:49.709Z,0.60
2017-10-22T12:26:18.092Z,0.70
2017-10-22T12:28:47.237Z,1.33
2017-10-22T12:31:15.625Z,0.50
2017-10-22T12:33:44.021Z,0.77
2017-10-22T12:36:12.368Z,0.73
2017-10-22T12:38:40.712Z,0.50
2017-10-22T12:41:09.110Z,1.00
2017-10-22T12:43:38.214Z,0.70
2017-10-22T12:46:06.572Z,0.93
2017-10-22T12:48:34.941Z,0.60
2017-10-22T12:51:03.300Z,0.70
2017-10-22T12:53:32.449Z,0.70
2017-10-22T12:56:00.796Z,0.80
2017-10-22T12:58:29.925Z,0.50
2017-10-22T13:00:59.039Z,0.60
2017-10-22T13:03:27.363Z,0.50
2017-10-22T13:05:55.739Z,0.70
2017-10-22T13:08:24.134Z,0.50
2017-10-22T13:10:52.512Z,0.70
2017-10-22T13:13:20.876Z,0.50
2017-10-22T13:15:49.256Z,0.50
2017-10-22T13:18:17.604Z,0.60
2017-10-22T13:20:45.937Z,0.50
2017-10-22T13:23:14.293Z,0.50
2017-10-22T13:25:42.615Z,0.50
2017-10-22T13:28:11.037Z,0.50
2017-10-22T13:30:39.413Z,0.50
2017-10-22T13:33:08.501Z,0.50
2017-10-22T13:35:36.861Z,0.70
2017-10-22T13:38:05.188Z,0.50
2017-10-22T13:40:33.479Z,0.50
2017-10-22T13:43:01.801Z,0.50
2017-10-22T13:45:30.333Z,0.50
2017-10-22T13:47:58.655Z,0.50
2017-10-22T13:50:27.730Z,0.50
2017-10-22T13:52:56.013Z,0.40
2017-10-22T13:55:24.279Z,0.40
2017-10-22T13:57:52.574Z,0.40
2017-10-22T14:00:20.886Z,0.60
2017-10-22T14:02:49.159Z,0.50
2017-10-22T14:05:17.444Z,0.50
2017-10-22T14:07:45.732Z,0.53
2017-10-22T14:10:14.303Z,0.40
2017-10-22T14:12:42.607Z,0.50
2017-10-22T14:15:10.890Z,0.50
2017-10-22T14:17:39.186Z,0.60
2017-10-22T14:20:07.468Z,0.60
2017-10-22T14:22:35.812Z,0.70
2017-10-22T14:25:04.211Z,0.70
2017-10-22T14:27:32.491Z,0.83
2017-10-22T14:30:00.777Z,0.80
2017-10-22T14:32:29.073Z,0.80
2017-10-22T14:34:57.359Z,1.07
2017-10-22T14:37:25.676Z,0.90
2017-10-22T14:39:54.759Z,0.90
2017-10-22T14:42:23.031Z,1.10
2017-10-22T14:44:51.335Z,0.80
2017-10-22T14:47:19.611Z,1.10
2017-10-22T14:49:47.891Z,1.00
2017-10-22T14:52:16.182Z,0.73
2017-10-22T14:54:44.561Z,1.00
2017-10-22T14:57:13.069Z,0.73
2017-10-22T14:59:41.721Z,0.73
2017-10-22T15:02:10.004Z,1.00
2017-10-22T15:04:39.039Z,0.83
2017-10-22T15:07:07.349Z,1.50
2017-10-22T15:09:35.637Z,1.53
2017-10-22T15:12:04.672Z,1.40
2017-10-22T15:14:32.947Z,1.77
2017-10-22T15:17:01.229Z,1.60
2017-10-22T15:19:29.536Z,2.03
2017-10-22T15:21:57.814Z,2.00
2017-10-22T15:24:26.131Z,2.33
2017-10-22T15:26:55.204Z,2.53
2017-10-22T15:29:23.484Z,3.20
2017-10-22T15:31:51.768Z,3.17
2017-10-22T15:34:20.046Z,3.10
2017-10-22T15:36:48.339Z,3.27
2017-10-22T15:39:16.661Z,3.10
2017-10-22T15:41:44.935Z,5.57
2017-10-22T15:44:13.212Z,5.67
2017-10-22T15:46:41.504Z,5.47
2017-10-22T15:49:09.798Z,7.57
2017-10-22T15:51:38.131Z,8.60
2017-10-22T15:54:07.193Z,8.90
2017-10-22T15:56:35.478Z,8.67
2017-10-22T15:59:03.782Z,8.47
2017-10-22T16:01:32.062Z,9.77
2017-10-22T16:04:00.488Z,9.80
2017-10-22T16:06:29.543Z,8.67
2017-10-22T16:08:57.870Z,9.47
2017-10-22T16:11:26.157Z,8.33
2017-10-22T16:13:54.444Z,9.70
2017-10-22T16:16:22.876Z,8.10
2017-10-22T16:18:51.172Z,8.33
2017-10-22T16:21:19.460Z,9.70
2017-10-22T16:23:47.755Z,8.50
2017-10-22T16:26:16.040Z,8.93
2017-10-22T16:28:44.358Z,8.07
2017-10-22T16:31:12.654Z,8.30
2017-10-22T16:33:40.937Z,7.17
2017-10-22T16:36:09.235Z,7.50
2017-10-22T16:38:37.522Z,7.00
2017-10-22T16:41:06.840Z,8.20
2017-10-22T16:43:35.152Z,7.50
2017-10-22T16:46:03.460Z,7.97
2017-10-22T16:48:32.535Z,9.43
2017-10-22T16:51:00.871Z,9.93
2017-10-22T16:53:29.262Z,9.70
2017-10-22T16:55:57.546Z,9.57
2017-10-22T16:58:25.846Z,11.23
2017-10-22T17:00:54.145Z,11.17
2017-10-22T17:03:22.447Z,11.43
2017-10-22T17:05:50.791Z,9.60
2017-10-22T17:08:19.836Z,11.33
2017-10-22T17:10:48.130Z,9.83
2017-10-22T17:13:16.425Z,10.90
2017-10-22T17:15:44.715Z,10.40
2017-10-22T17:18:13.048Z,10.00
2017-10-22T17:20:42.113Z,10.30
2017-10-22T17:23:10.668Z,10.27
2017-10-22T17:25:39.003Z,9.63
2017-10-22T17:28:07.514Z,10.50
2017-10-22T17:30:35.914Z,10.10
2017-10-22T17:33:05.024Z,11.77
2017-10-22T17:35:34.092Z,11.07
2017-10-22T17:38:02.406Z,11.70
2017-10-22T17:40:30.694Z,12.60
2017-10-22T17:42:59.118Z,13.63
2017-10-22T17:45:27.420Z,10.77
2017-10-22T17:47:55.718Z,9.40
2017-10-22T17:50:23.998Z,11.50
2017-10-22T17:52:52.288Z,11.50
2017-10-22T17:55:20.614Z,10.83
2017-10-22T17:57:48.943Z,9.73
2017-10-22T18:00:18.159Z,11.37
2017-10-22T18:02:47.233Z,10.13
2017-10-22T18:05:16.195Z,8.80
2017-10-22T18:07:44.516Z,9.87
2017-10-22T18:10:12.804Z,7.27
2017-10-22T18:12:41.136Z,6.63
2017-10-22T18:15:10.181Z,7.37
2017-10-22T18:17:38.489Z,7.00
2017-10-22T18:20:07.340Z,8.00
2017-10-22T18:22:36.391Z,8.43
2017-10-22T18:25:04.748Z,6.60
2017-10-22T18:27:33.055Z,6.10
2017-10-22T18:30:01.340Z,6.77
2017-10-22T18:32:29.636Z,7.40
2017-10-22T18:34:57.923Z,6.70
2017-10-22T18:37:26.241Z,6.40
2017-10-22T18:39:54.541Z,6.33
2017-10-22T18:42:22.892Z,6.67
2017-10-22T18:44:51.312Z,5.30
2017-10-22T18:47:19.606Z,6.43
2017-10-22T18:49:47.894Z,7.80
2017-10-22T18:52:16.168Z,6.50
2017-10-22T18:54:44.447Z,6.47
2017-10-22T18:57:12.799Z,5.73
2017-10-22T18:59:41.856Z,5.50
2017-10-22T19:02:10.962Z,6.10
2017-10-22T19:04:39.282Z,5.80
2017-10-22T19:07:07.575Z,7.97
2017-10-22T19:09:35.946Z,8.53
2017-10-22T19:12:04.243Z,7.80
2017-10-22T19:14:32.537Z,7.20
2017-10-22T19:17:00.827Z,7.40
2017-10-22T19:19:29.396Z,7.60
2017-10-22T19:21:57.699Z,7.50
2017-10-22T19:24:25.984Z,8.20
2017-10-22T19:26:54.534Z,7.27
2017-10-22T19:29:22.844Z,9.80
2017-10-22T19:31:51.161Z,10.37
2017-10-22T19:34:19.499Z,8.80
2017-10-22T19:36:47.797Z,10.37
2017-10-22T19:39:16.108Z,11.53
2017-10-22T19:41:44.396Z,9.40
2017-10-22T19:44:12.695Z,8.73
2017-10-22T19:46:41.016Z,10.20
2017-10-22T19:49:09.304Z,8.80
2017-10-22T19:51:37.585Z,8.37
2017-10-22T19:54:05.893Z,9.70
2017-10-22T19:56:34.286Z,10.43
2017-10-22T19:59:03.364Z,9.50
2017-10-22T20:01:31.724Z,8.80
2017-10-22T20:04:00.008Z,8.93
2017-10-22T20:06:28.289Z,7.33
2017-10-22T20:08:56.571Z,7.43
2017-10-22T20:11:24.889Z,7.80
2017-10-22T20:13:53.271Z,8.27
2017-10-22T20:20:49.748Z,6.67
2017-10-22T20:23:18.043Z,6.90
2017-10-22T20:25:46.339Z,5.80
2017-10-22T20:28:14.652Z,6.80
2017-10-22T20:30:42.946Z,5.73
2017-10-22T20:33:11.236Z,5.93
2017-10-22T20:35:39.660Z,6.43
2017-10-22T20:38:08.713Z,7.57
2017-10-22T20:40:36.991Z,5.70
2017-10-22T20:43:05.275Z,6.40
2017-10-22T20:45:33.563Z,6.43
2017-10-22T20:48:01.896Z,6.33
2017-10-22T20:50:30.205Z,6.10
2017-10-22T20:52:58.483Z,6.07
2017-10-22T20:55:26.766Z,7.10
2017-10-22T20:57:55.075Z,6.23
2017-10-22T21:00:23.433Z,6.70
2017-10-22T21:02:51.725Z,6.10
2017-10-22T21:05:20.099Z,6.50
2017-10-22T21:07:48.378Z,6.60
2017-10-22T21:10:16.659Z,7.37
2017-10-22T21:12:45.089Z,8.00
2017-10-22T21:15:13.385Z,8.33
2017-10-22T21:17:41.668Z,8.17
2017-10-22T21:20:09.965Z,7.80
2017-10-22T21:22:38.256Z,6.70
2017-10-22T21:25:06.567Z,6.50
2017-10-22T21:27:35.611Z,7.10
2017-10-22T21:30:03.900Z,6.50
2017-10-22T21:32:32.190Z,6.93
2017-10-22T21:35:00.725Z,6.73
2017-10-22T21:37:29.012Z,6.70
2017-10-22T21:39:57.316Z,6.50
2017-10-22T21:42:25.642Z,6.73
2017-10-22T21:44:53.929Z,5.93
2017-10-22T21:47:22.205Z,6.07
2017-10-22T21:49:51.252Z,7.13
2017-10-22T21:52:19.556Z,5.30
2017-10-22T21:54:48.644Z,5.67
2017-10-22T21:57:16.940Z,6.33
2017-10-22T21:59:45.256Z,7.20
2017-10-22T22:02:13.530Z,5.70
2017-10-22T22:04:41.825Z,6.37
2017-10-22T22:07:10.136Z,7.93
2017-10-22T22:09:38.542Z,6.73
2017-10-22T22:12:07.629Z,8.57
2017-10-22T22:14:35.911Z,7.87
2017-10-22T22:17:04.203Z,8.20
2017-10-22T22:19:32.492Z,7.70
2017-10-22T22:22:00.783Z,8.97
2017-10-22T22:24:29.060Z,8.30
2017-10-22T22:26:57.377Z,7.87
2017-10-22T22:29:26.491Z,8.90
2017-10-22T22:31:55.569Z,8.00
2017-10-22T22:34:24.626Z,7.27
2017-10-22T22:36:52.917Z,8.53
2017-10-22T22:39:21.393Z,8.00
2017-10-22T22:41:49.987Z,8.77
2017-10-22T22:44:18.425Z,8.33
2017-10-22T22:46:47.488Z,8.70
2017-10-22T22:49:16.998Z,8.40
2017-10-22T22:51:46.534Z,8.53
2017-10-22T22:54:16.082Z,8.70
2017-10-22T22:56:44.845Z,8.20
2017-10-22T22:59:13.656Z,8.67
2017-10-22T23:01:43.154Z,8.07
2017-10-22T23:04:12.639Z,8.60
2017-10-22T23:06:42.309Z,7.87
2017-10-22T23:09:11.040Z,7.67
2017-10-22T23:11:39.662Z,9.33
2017-10-22T23:14:08.479Z,8.50
2017-10-22T23:16:37.856Z,8.83
2017-10-22T23:19:07.443Z,8.10
2017-10-22T23:21:38.010Z,7.97
2017-10-22T23:24:06.723Z,8.50
2017-10-22T23:26:35.413Z,8.43
2017-10-22T23:29:04.218Z,9.17
2017-10-22T23:31:35.263Z,8.30
2017-10-22T23:34:04.046Z,8.90
2017-10-22T23:36:32.726Z,7.90
2017-10-22T23:39:02.535Z,7.60
2017-10-22T23:41:31.280Z,9.13
2017-10-22T23:44:01.789Z,7.17
2017-10-22T23:46:30.609Z,8.70
2017-10-22T23:49:00.188Z,9.57
2017-10-22T23:51:29.040Z,11.10
2017-10-22T23:53:57.761Z,10.00
2017-10-22T23:56:27.046Z,10.10
2017-10-22T23:58:55.837Z,11.10
